PWSweather.com
Personal Weather Stations
Station Observations
K4FB1
Clubhouse Heritage, Lakeland, FL 33812

Clubhouse HeritageLakeland, FL 33812

Lat: 27.969224, Lon: -81.897769

Elevation: 145

Station Type: Davis Vantage Pro2

http://www.ClubhouseWX.com

Latest ConditionsUpdated 5:55:00 AM EDT Monday, Jul 23, 2018
Currently Today's Max Today's Min Today's Average
Temperature 71.3°F21.8°C 75.5°F24.2°C 71.3°F21.8°C 73.6°F23.1°C
Dew Point -17.3°F-27.4°C -17.3°F-27.4°C -17.3°F-27.4°C -17.3°F-27.4°C
Winds 5.0 mph S8.0 kmh S 6.0 mph -9.7 kmh - - 3.6 mph 5.8 kmh
Wind Gusts 10.0 mph16.1 kmh 24.0 mph38.6 kmh - -
Humidity 0% 0% 0% 0%
Pressure 29.86 in1011.2 mb 29.93 in1013.5 mb 29.82 in1009.8 mb -
Precipitation - 0.45 in11.4 mm - -
Hour Temp Dew Point Humidity Winds Wind Gusts Pressure Precip Precip Rate Daily Precip Total
05:55 AM 71.3°F21.8°C -17.3°F-27.4°C 0% 5.0 mph S8.0 kmh S 10.0 mph16.1 kmh 29.86 in1011.2 mb 0.43 in10.9 mm 0.00 in0.0 mm 0.45 in11.4 mm
05:50 AM 71.6°F22.0°C -17.3°F-27.4°C 0% 5.0 mph SSE8.0 kmh SSE 10.0 mph16.1 kmh 29.86 in1011.2 mb 0.43 in10.9 mm 0.00 in0.0 mm 0.45 in11.4 mm
05:45 AM 72.0°F22.2°C -17.3°F-27.4°C 0% 5.0 mph SSE8.0 kmh SSE 11.0 mph17.7 kmh 29.84 in1010.5 mb 0.43 in10.9 mm 0.00 in0.0 mm 0.45 in11.4 mm
05:40 AM 72.7°F22.6°C -17.3°F-27.4°C 0% 4.0 mph S6.4 kmh S 11.0 mph17.7 kmh 29.83 in1010.2 mb 0.43 in10.9 mm 0.00 in0.0 mm 0.45 in11.4 mm
05:35 AM 73.7°F23.2°C -17.3°F-27.4°C 0% 4.0 mph SW6.4 kmh SW 10.0 mph16.1 kmh 29.84 in1010.5 mb 0.43 in10.9 mm 0.00 in0.0 mm 0.45 in11.4 mm
05:30 AM 74.0°F23.3°C -17.3°F-27.4°C 0% 3.0 mph WSW4.8 kmh WSW 10.0 mph16.1 kmh 29.86 in1011.2 mb 0.43 in10.9 mm 0.00 in0.0 mm 0.45 in11.4 mm
05:25 AM 73.7°F23.2°C -17.3°F-27.4°C 0% 6.0 mph WSW9.7 kmh WSW 24.0 mph38.6 kmh 29.86 in1011.2 mb 0.43 in10.9 mm 0.36 in9.1 mm 0.45 in11.4 mm
05:20 AM 74.4°F23.6°C -17.3°F-27.4°C 0% 6.0 mph SW9.7 kmh SW 24.0 mph38.6 kmh 29.87 in1011.5 mb 0.40 in10.2 mm 4.80 in121.9 mm 0.42 in10.7 mm
05:15 AM 75.5°F24.2°C -17.3°F-27.4°C 0% 3.0 mph SSW4.8 kmh SSW 11.0 mph17.7 kmh 29.87 in1011.5 mb 0.00 in0.0 mm 0.00 in0.0 mm 0.02 in0.5 mm
05:10 AM 75.4°F24.1°C -17.3°F-27.4°C 0% 2.0 mph S3.2 kmh S 5.0 mph8.0 kmh 29.84 in1010.5 mb 0.00 in0.0 mm 0.00 in0.0 mm 0.02 in0.5 mm
05:05 AM 75.4°F24.1°C -17.3°F-27.4°C 0% 2.0 mph S3.2 kmh S 5.0 mph8.0 kmh 29.84 in1010.5 mb 0.00 in0.0 mm 0.00 in0.0 mm 0.02 in0.5 mm
05:00 AM 75.4°F24.1°C -17.3°F-27.4°C 0% 1.0 mph SSW1.6 kmh SSW 4.0 mph6.4 kmh 29.85 in1010.8 mb 0.00 in0.0 mm 0.00 in0.0 mm 0.02 in0.5 mm
04:55 AM 75.4°F24.1°C -17.3°F-27.4°C 0% 2.0 mph SSW3.2 kmh SSW 4.0 mph6.4 kmh 29.86 in1011.2 mb 0.00 in0.0 mm 0.00 in0.0 mm 0.02 in0.5 mm
04:50 AM 75.3°F24.1°C -17.3°F-27.4°C 0% 1.0 mph S1.6 kmh S 4.0 mph6.4 kmh 29.86 in1011.2 mb 0.00 in0.0 mm 0.00 in0.0 mm 0.02 in0.5 mm
04:45 AM 75.3°F24.1°C -17.3°F-27.4°C 0% 1.0 mph S1.6 kmh S 4.0 mph6.4 kmh 29.85 in1010.8 mb 0.00 in0.0 mm 0.00 in0.0 mm 0.02 in0.5 mm
04:40 AM 75.3°F24.1°C -17.3°F-27.4°C 0% 2.0 mph S3.2 kmh S 4.0 mph6.4 kmh 29.85 in1010.8 mb 0.00 in0.0 mm 0.00 in0.0 mm 0.02 in0.5 mm
04:35 AM 75.3°F24.1°C -17.3°F-27.4°C 0% 2.0 mph S3.2 kmh S 4.0 mph6.4 kmh 29.85 in1010.8 mb 0.00 in0.0 mm 0.00 in0.0 mm 0.02 in0.5 mm
04:30 AM 75.2°F24.0°C -17.3°F-27.4°C 0% 2.0 mph S3.2 kmh S 4.0 mph6.4 kmh 29.85 in1010.8 mb 0.00 in0.0 mm 0.00 in0.0 mm 0.02 in0.5 mm
04:25 AM 75.2°F24.0°C -17.3°F-27.4°C 0% 1.0 mph S1.6 kmh S 3.0 mph4.8 kmh 29.85 in1010.8 mb 0.00 in0.0 mm 0.00 in0.0 mm 0.02 in0.5 mm
04:20 AM 75.1°F23.9°C -17.3°F-27.4°C 0% 2.0 mph S3.2 kmh S 4.0 mph6.4 kmh 29.85 in1010.8 mb 0.00 in0.0 mm 0.00 in0.0 mm 0.02 in0.5 mm
04:15 AM 75.0°F23.9°C -17.3°F-27.4°C 0% 2.0 mph S3.2 kmh S 5.0 mph8.0 kmh 29.85 in1010.8 mb 0.00 in0.0 mm 0.00 in0.0 mm 0.02 in0.5 mm
04:10 AM 74.9°F23.8°C -17.3°F-27.4°C 0% 3.0 mph S4.8 kmh S 6.0 mph9.7 kmh 29.84 in1010.5 mb 0.00 in0.0 mm 0.00 in0.0 mm 0.02 in0.5 mm
04:05 AM 74.8°F23.8°C -17.3°F-27.4°C 0% 3.0 mph SSE4.8 kmh SSE 6.0 mph9.7 kmh 29.83 in1010.2 mb 0.00 in0.0 mm 0.00 in0.0 mm 0.02 in0.5 mm
04:00 AM 74.8°F23.8°C -17.3°F-27.4°C 0% 3.0 mph SSE4.8 kmh SSE 7.0 mph11.3 kmh 29.83 in1010.2 mb 0.00 in0.0 mm 0.00 in0.0 mm 0.02 in0.5 mm
03:55 AM 74.7°F23.7°C -17.3°F-27.4°C 0% 4.0 mph S6.4 kmh S 8.0 mph12.9 kmh 29.83 in1010.2 mb 0.00 in0.0 mm 0.00 in0.0 mm 0.02 in0.5 mm
03:50 AM 74.5°F23.6°C -17.3°F-27.4°C 0% 4.0 mph S6.4 kmh S 8.0 mph12.9 kmh 29.83 in1010.2 mb 0.00 in0.0 mm 0.00 in0.0 mm 0.02 in0.5 mm
03:45 AM 74.4°F23.6°C -17.3°F-27.4°C 0% 4.0 mph SSE6.4 kmh SSE 7.0 mph11.3 kmh 29.82 in1009.8 mb 0.00 in0.0 mm 0.00 in0.0 mm 0.02 in0.5 mm
03:40 AM 74.4°F23.6°C -17.3°F-27.4°C 0% 4.0 mph SSE6.4 kmh SSE 7.0 mph11.3 kmh 29.82 in1009.8 mb 0.00 in0.0 mm 0.00 in0.0 mm 0.02 in0.5 mm
03:35 AM 74.3°F23.5°C -17.3°F-27.4°C 0% 3.0 mph SSE4.8 kmh SSE 6.0 mph9.7 kmh 29.83 in1010.2 mb 0.00 in0.0 mm 0.00 in0.0 mm 0.02 in0.5 mm
03:30 AM 74.2°F23.4°C -17.3°F-27.4°C 0% 3.0 mph SSE4.8 kmh SSE 7.0 mph11.3 kmh 29.84 in1010.5 mb 0.00 in0.0 mm 0.00 in0.0 mm 0.02 in0.5 mm
03:25 AM 74.1°F23.4°C -17.3°F-27.4°C 0% 4.0 mph SSE6.4 kmh SSE 8.0 mph12.9 kmh 29.83 in1010.2 mb 0.00 in0.0 mm 0.00 in0.0 mm 0.02 in0.5 mm
03:20 AM 74.0°F23.3°C -17.3°F-27.4°C 0% 4.0 mph SSE6.4 kmh SSE 8.0 mph12.9 kmh 29.83 in1010.2 mb 0.00 in0.0 mm 0.00 in0.0 mm 0.02 in0.5 mm
03:15 AM 74.0°F23.3°C -17.3°F-27.4°C 0% 4.0 mph SSE6.4 kmh SSE 7.0 mph11.3 kmh 29.84 in1010.5 mb 0.00 in0.0 mm 0.00 in0.0 mm 0.02 in0.5 mm
03:10 AM 73.9°F23.3°C -17.3°F-27.4°C 0% 5.0 mph SSE8.0 kmh SSE 9.0 mph14.5 kmh 29.85 in1010.8 mb 0.00 in0.0 mm 0.00 in0.0 mm 0.02 in0.5 mm
03:05 AM 73.8°F23.2°C -17.3°F-27.4°C 0% 4.0 mph SSE6.4 kmh SSE 9.0 mph14.5 kmh 29.84 in1010.5 mb 0.00 in0.0 mm 0.00 in0.0 mm 0.02 in0.5 mm
03:00 AM 73.7°F23.2°C -17.3°F-27.4°C 0% 4.0 mph SSE6.4 kmh SSE 9.0 mph14.5 kmh 29.85 in1010.8 mb 0.00 in0.0 mm 0.00 in0.0 mm 0.02 in0.5 mm
02:55 AM 73.6°F23.1°C -17.3°F-27.4°C 0% 4.0 mph SSE6.4 kmh SSE 8.0 mph12.9 kmh 29.84 in1010.5 mb 0.00 in0.0 mm 0.00 in0.0 mm 0.02 in0.5 mm
02:50 AM 73.4°F23.0°C -17.3°F-27.4°C 0% 3.0 mph SE4.8 kmh SE 8.0 mph12.9 kmh 29.85 in1010.8 mb 0.00 in0.0 mm 0.00 in0.0 mm 0.02 in0.5 mm
02:45 AM 73.4°F23.0°C -17.3°F-27.4°C 0% 3.0 mph SE4.8 kmh SE 8.0 mph12.9 kmh 29.85 in1010.8 mb 0.00 in0.0 mm 0.00 in0.0 mm 0.02 in0.5 mm
02:40 AM 73.3°F22.9°C -17.3°F-27.4°C 0% 3.0 mph SE4.8 kmh SE 6.0 mph9.7 kmh 29.84 in1010.5 mb 0.00 in0.0 mm 0.00 in0.0 mm 0.02 in0.5 mm
02:35 AM 73.1°F22.8°C -17.3°F-27.4°C 0% 3.0 mph SE4.8 kmh SE 6.0 mph9.7 kmh 29.85 in1010.8 mb 0.00 in0.0 mm 0.00 in0.0 mm 0.02 in0.5 mm
02:30 AM 73.0°F22.8°C -17.3°F-27.4°C 0% 3.0 mph SSE4.8 kmh SSE 7.0 mph11.3 kmh 29.84 in1010.5 mb 0.00 in0.0 mm 0.00 in0.0 mm 0.02 in0.5 mm
02:25 AM 72.9°F22.7°C -17.3°F-27.4°C 0% 4.0 mph SSE6.4 kmh SSE 7.0 mph11.3 kmh 29.84 in1010.5 mb 0.00 in0.0 mm 0.00 in0.0 mm 0.02 in0.5 mm
02:20 AM 72.8°F22.7°C -17.3°F-27.4°C 0% 5.0 mph SE8.0 kmh SE 9.0 mph14.5 kmh 29.84 in1010.5 mb 0.00 in0.0 mm 0.00 in0.0 mm 0.02 in0.5 mm
02:15 AM 72.8°F22.7°C -17.3°F-27.4°C 0% 5.0 mph SE8.0 kmh SE 9.0 mph14.5 kmh 29.83 in1010.2 mb 0.00 in0.0 mm 0.00 in0.0 mm 0.02 in0.5 mm
02:10 AM 72.7°F22.6°C -17.3°F-27.4°C 0% 5.0 mph SE8.0 kmh SE 9.0 mph14.5 kmh 29.84 in1010.5 mb 0.00 in0.0 mm 0.00 in0.0 mm 0.02 in0.5 mm
02:05 AM 72.6°F22.6°C -17.3°F-27.4°C 0% 5.0 mph SE8.0 kmh SE 9.0 mph14.5 kmh 29.84 in1010.5 mb 0.00 in0.0 mm 0.00 in0.0 mm 0.02 in0.5 mm
02:00 AM 72.6°F22.6°C -17.3°F-27.4°C 0% 5.0 mph SE8.0 kmh SE 10.0 mph16.1 kmh 29.84 in1010.5 mb 0.00 in0.0 mm 0.00 in0.0 mm 0.02 in0.5 mm
01:55 AM 72.6°F22.6°C -17.3°F-27.4°C 0% 5.0 mph SE8.0 kmh SE 10.0 mph16.1 kmh 29.84 in1010.5 mb 0.01 in0.3 mm 0.00 in0.0 mm 0.02 in0.5 mm
01:50 AM 72.6°F22.6°C -17.3°F-27.4°C 0% 5.0 mph SE8.0 kmh SE 10.0 mph16.1 kmh 29.84 in1010.5 mb 0.01 in0.3 mm 0.00 in0.0 mm 0.02 in0.5 mm
01:45 AM 72.5°F22.5°C -17.3°F-27.4°C 0% 4.0 mph SE6.4 kmh SE 9.0 mph14.5 kmh 29.85 in1010.8 mb 0.01 in0.3 mm 0.00 in0.0 mm 0.02 in0.5 mm
01:40 AM 72.5°F22.5°C -17.3°F-27.4°C 0% 4.0 mph SE6.4 kmh SE 8.0 mph12.9 kmh 29.85 in1010.8 mb 0.01 in0.3 mm 0.00 in0.0 mm 0.02 in0.5 mm
01:35 AM 72.5°F22.5°C -17.3°F-27.4°C 0% 4.0 mph SE6.4 kmh SE 7.0 mph11.3 kmh 29.86 in1011.2 mb 0.01 in0.3 mm 0.00 in0.0 mm 0.02 in0.5 mm
01:30 AM 72.6°F22.6°C -17.3°F-27.4°C 0% 4.0 mph SE6.4 kmh SE 8.0 mph12.9 kmh 29.87 in1011.5 mb 0.01 in0.3 mm 0.00 in0.0 mm 0.02 in0.5 mm
01:25 AM 72.7°F22.6°C -17.3°F-27.4°C 0% 3.0 mph SE4.8 kmh SE 8.0 mph12.9 kmh 29.87 in1011.5 mb 0.02 in0.5 mm 0.00 in0.0 mm 0.02 in0.5 mm
01:20 AM 72.7°F22.6°C -17.3°F-27.4°C 0% 3.0 mph SE4.8 kmh SE 6.0 mph9.7 kmh 29.88 in1011.9 mb 0.02 in0.5 mm 0.00 in0.0 mm 0.02 in0.5 mm
01:15 AM 72.8°F22.7°C -17.3°F-27.4°C 0% 4.0 mph SE6.4 kmh SE 9.0 mph14.5 kmh 29.87 in1011.5 mb 0.02 in0.5 mm 0.00 in0.0 mm 0.02 in0.5 mm
01:10 AM 72.8°F22.7°C -17.3°F-27.4°C 0% 5.0 mph SE8.0 kmh SE 13.0 mph20.9 kmh 29.88 in1011.9 mb 0.02 in0.5 mm 0.00 in0.0 mm 0.02 in0.5 mm
01:05 AM 72.9°F22.7°C -17.3°F-27.4°C 0% 5.0 mph SE8.0 kmh SE 13.0 mph20.9 kmh 29.88 in1011.9 mb 0.02 in0.5 mm 0.00 in0.0 mm 0.02 in0.5 mm
01:00 AM 73.0°F22.8°C -17.3°F-27.4°C 0% 4.0 mph SE6.4 kmh SE 10.0 mph16.1 kmh 29.88 in1011.9 mb 0.02 in0.5 mm 0.01 in0.3 mm 0.02 in0.5 mm
12:55 AM 73.0°F22.8°C -17.3°F-27.4°C 0% 5.0 mph ESE8.0 kmh ESE 10.0 mph16.1 kmh 29.88 in1011.9 mb 0.01 in0.3 mm 0.00 in0.0 mm 0.01 in0.3 mm
12:50 AM 73.0°F22.8°C -17.3°F-27.4°C 0% 4.0 mph ESE6.4 kmh ESE 10.0 mph16.1 kmh 29.88 in1011.9 mb 0.01 in0.3 mm 0.00 in0.0 mm 0.01 in0.3 mm
12:45 AM 73.0°F22.8°C -17.3°F-27.4°C 0% 4.0 mph ESE6.4 kmh ESE 9.0 mph14.5 kmh 29.89 in1012.2 mb 0.03 in0.8 mm 0.00 in0.0 mm 0.01 in0.3 mm
12:40 AM 72.9°F22.7°C -17.3°F-27.4°C 0% 3.0 mph E4.8 kmh E 8.0 mph12.9 kmh 29.89 in1012.2 mb 0.04 in1.0 mm 0.00 in0.0 mm 0.01 in0.3 mm
12:35 AM 72.8°F22.7°C -17.3°F-27.4°C 0% 3.0 mph E4.8 kmh E 8.0 mph12.9 kmh 29.90 in1012.5 mb 0.05 in1.3 mm 0.00 in0.0 mm 0.01 in0.3 mm
12:30 AM 72.7°F22.6°C -17.3°F-27.4°C 0% 3.0 mph E4.8 kmh E 8.0 mph12.9 kmh 29.90 in1012.5 mb 0.09 in2.3 mm 0.00 in0.0 mm 0.01 in0.3 mm
12:25 AM 72.8°F22.7°C -17.3°F-27.4°C 0% 4.0 mph E6.4 kmh E 8.0 mph12.9 kmh 29.91 in1012.9 mb 0.17 in4.3 mm 0.00 in0.0 mm 0.28 in7.1 mm
12:20 AM 72.8°F22.7°C -17.3°F-27.4°C 0% 4.0 mph E6.4 kmh E 8.0 mph12.9 kmh 29.91 in1012.9 mb 0.25 in6.4 mm 0.00 in0.0 mm 0.28 in7.1 mm
12:15 AM 72.9°F22.7°C -17.3°F-27.4°C 0% 4.0 mph ENE6.4 kmh ENE 10.0 mph16.1 kmh 29.91 in1012.9 mb 0.27 in6.9 mm 0.00 in0.0 mm 0.28 in7.1 mm
12:10 AM 73.0°F22.8°C -17.3°F-27.4°C 0% 4.0 mph NE6.4 kmh NE 10.0 mph16.1 kmh 29.91 in1012.9 mb 0.27 in6.9 mm 0.00 in0.0 mm 0.28 in7.1 mm
12:05 AM 73.2°F22.9°C -17.3°F-27.4°C 0% 3.0 mph NE4.8 kmh NE 7.0 mph11.3 kmh 29.92 in1013.2 mb 0.27 in6.9 mm 0.00 in0.0 mm 0.28 in7.1 mm
12:00 AM 73.2°F22.9°C -17.3°F-27.4°C 0% 3.0 mph NE4.8 kmh NE 6.0 mph9.7 kmh 29.93 in1013.5 mb 0.28 in7.1 mm 0.00 in0.0 mm 0.28 in7.1 mm